sensor_id;sensor_type;location;lat;lon;timestamp;temperature;humidity
21778;DHT22;11050;52.222;20.916;2024-03-02T00:00:51;7.20;99.90
21778;DHT22;11050;52.222;20.916;2024-03-02T00:03:18;7.20;99.90
21778;DHT22;11050;52.222;20.916;2024-03-02T00:05:48;7.20;99.90
21778;DHT22;11050;52.222;20.916;2024-03-02T00:08:22;7.20;99.90
21778;DHT22;11050;52.222;20.916;2024-03-02T00:10:57;7.10;99.90
21778;DHT22;11050;52.222;20.916;2024-03-02T00:13:24;7.10;99.90
21778;DHT22;11050;52.222;20.916;2024-03-02T00:15:54;7.10;99.90
21778;DHT22;11050;52.222;20.916;2024-03-02T00:18:30;7.10;99.90
21778;DHT22;11050;52.222;20.916;2024-03-02T00:20:57;7.10;99.90
21778;DHT22;11050;52.222;20.916;2024-03-02T00:23:24;7.00;99.90
21778;DHT22;11050;52.222;20.916;2024-03-02T00:25:54;7.10;99.90
21778;DHT22;11050;52.222;20.916;2024-03-02T00:33:22;7.00;99.90
21778;DHT22;11050;52.222;20.916;2024-03-02T00:35:49;7.00;99.90
21778;DHT22;11050;52.222;20.916;2024-03-02T00:38:16;7.00;99.90
21778;DHT22;11050;52.222;20.916;2024-03-02T00:40:43;7.00;99.90
21778;DHT22;11050;52.222;20.916;2024-03-02T00:45:59;7.00;99.90
21778;DHT22;11050;52.222;20.916;2024-03-02T00:48:24;7.00;99.90
21778;DHT22;11050;52.222;20.916;2024-03-02T00:50:52;7.00;99.90
21778;DHT22;11050;52.222;20.916;2024-03-02T00:53:22;7.00;99.90
21778;DHT22;11050;52.222;20.916;2024-03-02T00:55:51;7.00;99.90
21778;DHT22;11050;52.222;20.916;2024-03-02T00:58:17;7.00;99.90
21778;DHT22;11050;52.222;20.916;2024-03-02T01:00:43;7.00;99.90
21778;DHT22;11050;52.222;20.916;2024-03-02T01:03:09;7.10;99.90
21778;DHT22;11050;52.222;20.916;2024-03-02T01:05:36;7.00;99.90
21778;DHT22;11050;52.222;20.916;2024-03-02T01:08:02;7.00;99.90
21778;DHT22;11050;52.222;20.916;2024-03-02T01:10:28;7.00;99.90
21778;DHT22;11050;52.222;20.916;2024-03-02T01:12:54;7.00;99.90
21778;DHT22;11050;52.222;20.916;2024-03-02T01:15:19;7.00;99.90
21778;DHT22;11050;52.222;20.916;2024-03-02T01:17:46;6.90;99.90
21778;DHT22;11050;52.222;20.916;2024-03-02T01:20:12;6.90;99.90
21778;DHT22;11050;52.222;20.916;2024-03-02T01:22:37;6.90;99.90
21778;DHT22;11050;52.222;20.916;2024-03-02T01:25:04;6.80;99.90
21778;DHT22;11050;52.222;20.916;2024-03-02T01:27:30;6.80;99.90
21778;DHT22;11050;52.222;20.916;2024-03-02T01:29:55;6.80;99.90
21778;DHT22;11050;52.222;20.916;2024-03-02T01:32:21;6.70;99.90
21778;DHT22;11050;52.222;20.916;2024-03-02T01:34:47;6.70;99.90
21778;DHT22;11050;52.222;20.916;2024-03-02T01:37:13;6.70;99.90
21778;DHT22;11050;52.222;20.916;2024-03-02T01:39:39;6.60;99.90
21778;DHT22;11050;52.222;20.916;2024-03-02T01:42:04;6.60;99.90
21778;DHT22;11050;52.222;20.916;2024-03-02T01:44:31;6.60;99.90
21778;DHT22;11050;52.222;20.916;2024-03-02T01:46:57;6.50;99.90
21778;DHT22;11050;52.222;20.916;2024-03-02T01:49:22;6.50;99.90
21778;DHT22;11050;52.222;20.916;2024-03-02T01:51:48;6.50;99.90
21778;DHT22;11050;52.222;20.916;2024-03-02T01:54:14;6.50;99.90
21778;DHT22;11050;52.222;20.916;2024-03-02T01:56:40;6.50;99.90
21778;DHT22;11050;52.222;20.916;2024-03-02T01:59:06;6.50;99.90
21778;DHT22;11050;52.222;20.916;2024-03-02T02:01:32;6.40;99.90
21778;DHT22;11050;52.222;20.916;2024-03-02T02:03:57;6.40;99.90
21778;DHT22;11050;52.222;20.916;2024-03-02T02:06:23;6.40;99.90
21778;DHT22;11050;52.222;20.916;2024-03-02T02:08:49;6.40;99.90
21778;DHT22;11050;52.222;20.916;2024-03-02T02:11:16;6.40;99.90
21778;DHT22;11050;52.222;20.916;2024-03-02T02:13:42;6.40;99.90
21778;DHT22;11050;52.222;20.916;2024-03-02T02:16:08;6.40;99.90
21778;DHT22;11050;52.222;20.916;2024-03-02T02:18:34;6.40;99.90
21778;DHT22;11050;52.222;20.916;2024-03-02T02:21:01;6.30;99.90
21778;DHT22;11050;52.222;20.916;2024-03-02T02:23:28;6.40;99.90
21778;DHT22;11050;52.222;20.916;2024-03-02T02:25:53;6.40;99.90
21778;DHT22;11050;52.222;20.916;2024-03-02T02:28:20;6.40;99.90
21778;DHT22;11050;52.222;20.916;2024-03-02T02:30:46;6.30;99.90
21778;DHT22;11050;52.222;20.916;2024-03-02T02:33:11;6.40;99.90
21778;DHT22;11050;52.222;20.916;2024-03-02T02:35:37;6.40;99.90
21778;DHT22;11050;52.222;20.916;2024-03-02T02:38:03;6.30;99.90
21778;DHT22;11050;52.222;20.916;2024-03-02T02:40:29;6.30;99.90
21778;DHT22;11050;52.222;20.916;2024-03-02T02:42:56;6.30;99.90
21778;DHT22;11050;52.222;20.916;2024-03-02T02:45:22;6.30;99.90
21778;DHT22;11050;52.222;20.916;2024-03-02T02:47:48;6.30;99.90
21778;DHT22;11050;52.222;20.916;2024-03-02T02:50:14;6.30;99.90
21778;DHT22;11050;52.222;20.916;2024-03-02T02:52:41;6.20;99.90
21778;DHT22;11050;52.222;20.916;2024-03-02T02:55:11;6.20;99.90
21778;DHT22;11050;52.222;20.916;2024-03-02T02:57:40;6.20;99.90
21778;DHT22;11050;52.222;20.916;2024-03-02T03:00:10;6.20;99.90
21778;DHT22;11050;52.222;20.916;2024-03-02T03:02:43;6.20;99.90
21778;DHT22;11050;52.222;20.916;2024-03-02T03:05:11;6.20;99.90
21778;DHT22;11050;52.222;20.916;2024-03-02T03:07:39;6.20;99.90
21778;DHT22;11050;52.222;20.916;2024-03-02T03:10:07;6.20;99.90
21778;DHT22;11050;52.222;20.916;2024-03-02T03:12:34;6.10;99.90
21778;DHT22;11050;52.222;20.916;2024-03-02T03:15:01;6.10;99.90
21778;DHT22;11050;52.222;20.916;2024-03-02T03:17:28;6.10;99.90
21778;DHT22;11050;52.222;20.916;2024-03-02T03:19:54;6.10;99.90
21778;DHT22;11050;52.222;20.916;2024-03-02T03:22:20;6.00;99.90
21778;DHT22;11050;52.222;20.916;2024-03-02T03:24:46;6.10;99.90
21778;DHT22;11050;52.222;20.916;2024-03-02T03:27:12;6.00;99.90
21778;DHT22;11050;52.222;20.916;2024-03-02T03:29:37;6.00;99.90
21778;DHT22;11050;52.222;20.916;2024-03-02T03:32:03;5.90;99.90
21778;DHT22;11050;52.222;20.916;2024-03-02T03:34:32;5.90;99.90
21778;DHT22;11050;52.222;20.916;2024-03-02T03:36:58;5.90;99.90
21778;DHT22;11050;52.222;20.916;2024-03-02T03:39:24;5.90;99.90
21778;DHT22;11050;52.222;20.916;2024-03-02T03:41:50;5.90;99.90
21778;DHT22;11050;52.222;20.916;2024-03-02T03:44:16;5.90;99.90
21778;DHT22;11050;52.222;20.916;2024-03-02T03:46:42;5.80;99.90
21778;DHT22;11050;52.222;20.916;2024-03-02T03:49:07;5.80;99.90
21778;DHT22;11050;52.222;20.916;2024-03-02T03:51:33;5.80;99.90
21778;DHT22;11050;52.222;20.916;2024-03-02T03:53:59;5.90;99.90
21778;DHT22;11050;52.222;20.916;2024-03-02T03:56:25;5.80;99.90
21778;DHT22;11050;52.222;20.916;2024-03-02T03:58:51;5.80;99.90
21778;DHT22;11050;52.222;20.916;2024-03-02T04:01:16;5.80;99.90
21778;DHT22;11050;52.222;20.916;2024-03-02T04:03:42;5.80;99.90
21778;DHT22;11050;52.222;20.916;2024-03-02T04:06:08;5.80;99.90
21778;DHT22;11050;52.222;20.916;2024-03-02T04:08:33;5.80;99.90
21778;DHT22;11050;52.222;20.916;2024-03-02T04:10:59;5.80;99.90
21778;DHT22;11050;52.222;20.916;2024-03-02T04:13:25;5.80;99.90
21778;DHT22;11050;52.222;20.916;2024-03-02T04:15:50;5.80;99.90
21778;DHT22;11050;52.222;20.916;2024-03-02T04:18:16;5.80;99.90
21778;DHT22;11050;52.222;20.916;2024-03-02T04:20:42;5.80;99.90
21778;DHT22;11050;52.222;20.916;2024-03-02T04:23:07;5.80;99.90
21778;DHT22;11050;52.222;20.916;2024-03-02T04:25:33;5.80;99.90
21778;DHT22;11050;52.222;20.916;2024-03-02T04:27:59;5.80;99.90
21778;DHT22;11050;52.222;20.916;2024-03-02T04:30:25;5.80;99.90
21778;DHT22;11050;52.222;20.916;2024-03-02T04:32:50;5.80;99.90
21778;DHT22;11050;52.222;20.916;2024-03-02T04:35:16;5.80;99.90
21778;DHT22;11050;52.222;20.916;2024-03-02T04:37:42;5.80;99.90
21778;DHT22;11050;52.222;20.916;2024-03-02T04:40:08;5.80;99.90
21778;DHT22;11050;52.222;20.916;2024-03-02T04:42:35;5.80;99.90
21778;DHT22;11050;52.222;20.916;2024-03-02T04:45:01;5.80;99.90
21778;DHT22;11050;52.222;20.916;2024-03-02T04:47:27;5.80;99.90
21778;DHT22;11050;52.222;20.916;2024-03-02T04:49:53;5.80;99.90
21778;DHT22;11050;52.222;20.916;2024-03-02T04:52:18;5.80;99.90
21778;DHT22;11050;52.222;20.916;2024-03-02T04:54:44;5.70;99.90
21778;DHT22;11050;52.222;20.916;2024-03-02T04:57:28;5.70;99.90
21778;DHT22;11050;52.222;20.916;2024-03-02T04:59:54;5.70;99.90
21778;DHT22;11050;52.222;20.916;2024-03-02T05:02:20;5.70;99.90
21778;DHT22;11050;52.222;20.916;2024-03-02T05:04:45;5.70;99.90
21778;DHT22;11050;52.222;20.916;2024-03-02T05:07:13;5.70;99.90
21778;DHT22;11050;52.222;20.916;2024-03-02T05:09:40;5.70;99.90
21778;DHT22;11050;52.222;20.916;2024-03-02T05:12:05;5.70;99.90
21778;DHT22;11050;52.222;20.916;2024-03-02T05:14:34;5.60;99.90
21778;DHT22;11050;52.222;20.916;2024-03-02T05:17:00;5.60;99.90
21778;DHT22;11050;52.222;20.916;2024-03-02T05:19:25;5.70;99.90
21778;DHT22;11050;52.222;20.916;2024-03-02T05:21:51;5.60;99.90
21778;DHT22;11050;52.222;20.916;2024-03-02T05:24:17;5.60;99.90
21778;DHT22;11050;52.222;20.916;2024-03-02T05:26:42;5.60;99.90
21778;DHT22;11050;52.222;20.916;2024-03-02T05:29:09;5.60;99.90
21778;DHT22;11050;52.222;20.916;2024-03-02T05:31:34;5.60;99.90
21778;DHT22;11050;52.222;20.916;2024-03-02T05:34:00;5.60;99.90
21778;DHT22;11050;52.222;20.916;2024-03-02T05:36:26;5.70;99.90
21778;DHT22;11050;52.222;20.916;2024-03-02T05:38:52;5.60;99.90
21778;DHT22;11050;52.222;20.916;2024-03-02T05:41:18;5.60;99.90
21778;DHT22;11050;52.222;20.916;2024-03-02T05:43:44;5.60;99.90
21778;DHT22;11050;52.222;20.916;2024-03-02T05:46:09;5.70;99.90
21778;DHT22;11050;52.222;20.916;2024-03-02T05:48:35;5.70;99.90
21778;DHT22;11050;52.222;20.916;2024-03-02T05:51:01;5.70;99.90
21778;DHT22;11050;52.222;20.916;2024-03-02T05:53:27;5.70;99.90
21778;DHT22;11050;52.222;20.916;2024-03-02T05:55:52;5.70;99.90
21778;DHT22;11050;52.222;20.916;2024-03-02T05:58:21;5.70;99.90
21778;DHT22;11050;52.222;20.916;2024-03-02T06:01:13;5.70;99.90
21778;DHT22;11050;52.222;20.916;2024-03-02T06:03:39;5.70;99.90
21778;DHT22;11050;52.222;20.916;2024-03-02T06:06:04;5.80;99.90
21778;DHT22;11050;52.222;20.916;2024-03-02T06:08:31;5.80;99.90
21778;DHT22;11050;52.222;20.916;2024-03-02T06:10:56;5.80;99.90
21778;DHT22;11050;52.222;20.916;2024-03-02T06:13:22;5.80;99.90
21778;DHT22;11050;52.222;20.916;2024-03-02T06:15:48;5.80;99.90
21778;DHT22;11050;52.222;20.916;2024-03-02T06:18:14;5.90;99.90
21778;DHT22;11050;52.222;20.916;2024-03-02T06:20:40;5.90;99.90
21778;DHT22;11050;52.222;20.916;2024-03-02T06:23:05;5.90;99.90
21778;DHT22;11050;52.222;20.916;2024-03-02T06:25:31;5.90;99.90
21778;DHT22;11050;52.222;20.916;2024-03-02T06:27:57;6.00;99.90
21778;DHT22;11050;52.222;20.916;2024-03-02T06:30:23;6.00;99.90
21778;DHT22;11050;52.222;20.916;2024-03-02T06:32:49;6.00;99.90
21778;DHT22;11050;52.222;20.916;2024-03-02T06:35:15;6.10;99.90
21778;DHT22;11050;52.222;20.916;2024-03-02T06:37:40;6.10;99.90
21778;DHT22;11050;52.222;20.916;2024-03-02T06:40:07;6.10;99.90
21778;DHT22;11050;52.222;20.916;2024-03-02T06:42:34;6.20;99.90
21778;DHT22;11050;52.222;20.916;2024-03-02T06:45:00;6.20;99.90
21778;DHT22;11050;52.222;20.916;2024-03-02T06:47:26;6.20;99.90
21778;DHT22;11050;52.222;20.916;2024-03-02T06:49:52;6.30;99.90
21778;DHT22;11050;52.222;20.916;2024-03-02T06:52:18;6.30;99.90
21778;DHT22;11050;52.222;20.916;2024-03-02T06:54:45;6.40;99.90
21778;DHT22;11050;52.222;20.916;2024-03-02T06:57:12;6.40;99.90
21778;DHT22;11050;52.222;20.916;2024-03-02T06:59:37;6.50;99.90
21778;DHT22;11050;52.222;20.916;2024-03-02T07:02:03;6.50;99.90
21778;DHT22;11050;52.222;20.916;2024-03-02T07:04:29;6.60;99.90
21778;DHT22;11050;52.222;20.916;2024-03-02T07:06:54;6.60;99.90
21778;DHT22;11050;52.222;20.916;2024-03-02T07:09:20;6.60;99.90
21778;DHT22;11050;52.222;20.916;2024-03-02T07:11:48;6.80;99.90
21778;DHT22;11050;52.222;20.916;2024-03-02T07:14:14;6.80;99.90
21778;DHT22;11050;52.222;20.916;2024-03-02T07:16:40;6.80;99.90
21778;DHT22;11050;52.222;20.916;2024-03-02T07:19:08;6.90;99.90
21778;DHT22;11050;52.222;20.916;2024-03-02T07:21:34;6.90;99.90
21778;DHT22;11050;52.222;20.916;2024-03-02T07:24:00;6.90;99.90
21778;DHT22;11050;52.222;20.916;2024-03-02T07:26:29;7.00;99.90
21778;DHT22;11050;52.222;20.916;2024-03-02T07:28:56;7.00;99.90
21778;DHT22;11050;52.222;20.916;2024-03-02T07:31:22;7.00;99.90
21778;DHT22;11050;52.222;20.916;2024-03-02T07:33:48;7.00;99.90
21778;DHT22;11050;52.222;20.916;2024-03-02T07:36:14;7.10;99.90
21778;DHT22;11050;52.222;20.916;2024-03-02T07:38:40;7.10;99.90
21778;DHT22;11050;52.222;20.916;2024-03-02T07:41:07;7.10;99.90
21778;DHT22;11050;52.222;20.916;2024-03-02T07:43:33;7.10;99.90
21778;DHT22;11050;52.222;20.916;2024-03-02T07:45:59;7.10;99.90
21778;DHT22;11050;52.222;20.916;2024-03-02T07:48:25;7.20;99.90
21778;DHT22;11050;52.222;20.916;2024-03-02T07:50:52;7.20;99.90
21778;DHT22;11050;52.222;20.916;2024-03-02T07:53:18;7.20;99.90
21778;DHT22;11050;52.222;20.916;2024-03-02T07:55:43;7.30;99.90
21778;DHT22;11050;52.222;20.916;2024-03-02T07:58:09;7.20;99.90
21778;DHT22;11050;52.222;20.916;2024-03-02T08:00:38;7.30;99.90
21778;DHT22;11050;52.222;20.916;2024-03-02T08:03:05;7.30;99.90
21778;DHT22;11050;52.222;20.916;2024-03-02T08:05:32;7.30;99.90
21778;DHT22;11050;52.222;20.916;2024-03-02T08:07:57;7.30;99.90
21778;DHT22;11050;52.222;20.916;2024-03-02T08:10:23;7.30;99.90
21778;DHT22;11050;52.222;20.916;2024-03-02T08:12:49;7.40;99.90
21778;DHT22;11050;52.222;20.916;2024-03-02T08:15:14;7.40;99.90
21778;DHT22;11050;52.222;20.916;2024-03-02T08:17:40;7.40;99.90
21778;DHT22;11050;52.222;20.916;2024-03-02T08:20:13;7.40;99.90
21778;DHT22;11050;52.222;20.916;2024-03-02T08:22:39;7.50;99.90
21778;DHT22;11050;52.222;20.916;2024-03-02T08:25:06;7.50;99.90
21778;DHT22;11050;52.222;20.916;2024-03-02T08:27:33;7.50;99.90
21778;DHT22;11050;52.222;20.916;2024-03-02T08:29:59;7.60;99.90
21778;DHT22;11050;52.222;20.916;2024-03-02T08:32:24;7.60;99.90
21778;DHT22;11050;52.222;20.916;2024-03-02T08:34:50;7.60;99.90
21778;DHT22;11050;52.222;20.916;2024-03-02T08:37:16;7.70;99.90
21778;DHT22;11050;52.222;20.916;2024-03-02T08:39:42;7.70;99.90
21778;DHT22;11050;52.222;20.916;2024-03-02T08:42:07;7.80;99.90
21778;DHT22;11050;52.222;20.916;2024-03-02T08:44:33;7.80;99.90
21778;DHT22;11050;52.222;20.916;2024-03-02T08:46:59;7.80;99.90
21778;DHT22;11050;52.222;20.916;2024-03-02T08:49:25;7.90;99.90
21778;DHT22;11050;52.222;20.916;2024-03-02T08:51:51;7.90;99.90
21778;DHT22;11050;52.222;20.916;2024-03-02T08:54:23;7.90;99.90
21778;DHT22;11050;52.222;20.916;2024-03-02T08:56:49;7.90;99.90
21778;DHT22;11050;52.222;20.916;2024-03-02T08:59:16;7.90;99.90
21778;DHT22;11050;52.222;20.916;2024-03-02T09:01:42;8.00;99.90
21778;DHT22;11050;52.222;20.916;2024-03-02T09:04:08;8.00;99.90
21778;DHT22;11050;52.222;20.916;2024-03-02T09:06:34;8.00;99.90
21778;DHT22;11050;52.222;20.916;2024-03-02T09:09:00;8.00;99.90
21778;DHT22;11050;52.222;20.916;2024-03-02T09:11:26;8.00;99.90
21778;DHT22;11050;52.222;20.916;2024-03-02T09:13:52;8.00;99.90
21778;DHT22;11050;52.222;20.916;2024-03-02T09:16:18;8.10;99.90
21778;DHT22;11050;52.222;20.916;2024-03-02T09:18:45;8.10;99.90
21778;DHT22;11050;52.222;20.916;2024-03-02T09:21:10;8.20;99.90
21778;DHT22;11050;52.222;20.916;2024-03-02T09:23:36;8.20;99.90
21778;DHT22;11050;52.222;20.916;2024-03-02T09:26:02;8.30;99.90
21778;DHT22;11050;52.222;20.916;2024-03-02T09:28:28;8.30;99.90
21778;DHT22;11050;52.222;20.916;2024-03-02T09:30:54;8.30;99.90
21778;DHT22;11050;52.222;20.916;2024-03-02T09:33:20;8.40;99.90
21778;DHT22;11050;52.222;20.916;2024-03-02T09:35:46;8.40;99.90
21778;DHT22;11050;52.222;20.916;2024-03-02T09:38:11;8.50;99.90
21778;DHT22;11050;52.222;20.916;2024-03-02T09:40:37;8.50;99.90
21778;DHT22;11050;52.222;20.916;2024-03-02T09:43:03;8.50;99.90
21778;DHT22;11050;52.222;20.916;2024-03-02T09:45:30;8.60;99.90
21778;DHT22;11050;52.222;20.916;2024-03-02T09:47:56;8.60;99.90
21778;DHT22;11050;52.222;20.916;2024-03-02T09:50:22;8.60;99.90
21778;DHT22;11050;52.222;20.916;2024-03-02T09:52:52;8.60;99.90
21778;DHT22;11050;52.222;20.916;2024-03-02T09:55:20;8.60;99.90
21778;DHT22;11050;52.222;20.916;2024-03-02T09:57:46;8.70;99.90
21778;DHT22;11050;52.222;20.916;2024-03-02T10:00:14;8.70;99.90
21778;DHT22;11050;52.222;20.916;2024-03-02T10:02:41;8.80;99.90
21778;DHT22;11050;52.222;20.916;2024-03-02T10:05:11;8.80;99.90
21778;DHT22;11050;52.222;20.916;2024-03-02T10:07:38;8.90;99.90
21778;DHT22;11050;52.222;20.916;2024-03-02T10:10:14;9.00;99.90
21778;DHT22;11050;52.222;20.916;2024-03-02T10:12:41;9.00;99.90
21778;DHT22;11050;52.222;20.916;2024-03-02T10:15:07;9.10;99.90
21778;DHT22;11050;52.222;20.916;2024-03-02T10:17:34;9.20;99.90
21778;DHT22;11050;52.222;20.916;2024-03-02T10:20:27;9.30;99.90
21778;DHT22;11050;52.222;20.916;2024-03-02T10:23:14;9.50;99.90
21778;DHT22;11050;52.222;20.916;2024-03-02T10:25:42;9.60;99.90
21778;DHT22;11050;52.222;20.916;2024-03-02T10:28:09;9.60;99.90
21778;DHT22;11050;52.222;20.916;2024-03-02T10:30:35;9.80;99.90
21778;DHT22;11050;52.222;20.916;2024-03-02T10:33:02;9.80;99.90
21778;DHT22;11050;52.222;20.916;2024-03-02T10:35:28;9.90;99.90
21778;DHT22;11050;52.222;20.916;2024-03-02T10:37:58;10.00;99.90
21778;DHT22;11050;52.222;20.916;2024-03-02T10:40:26;10.10;99.90
21778;DHT22;11050;52.222;20.916;2024-03-02T10:42:52;10.10;99.90
21778;DHT22;11050;52.222;20.916;2024-03-02T10:45:20;10.20;99.90
21778;DHT22;11050;52.222;20.916;2024-03-02T10:47:50;10.20;99.90
21778;DHT22;11050;52.222;20.916;2024-03-02T10:50:16;10.30;99.90
21778;DHT22;11050;52.222;20.916;2024-03-02T10:52:42;10.40;99.90
21778;DHT22;11050;52.222;20.916;2024-03-02T10:55:09;10.50;99.90
21778;DHT22;11050;52.222;20.916;2024-03-02T10:57:54;10.60;99.90
21778;DHT22;11050;52.222;20.916;2024-03-02T11:00:24;10.60;99.90
21778;DHT22;11050;52.222;20.916;2024-03-02T11:03:06;10.70;99.90
21778;DHT22;11050;52.222;20.916;2024-03-02T11:05:37;10.80;99.90
21778;DHT22;11050;52.222;20.916;2024-03-02T11:08:13;10.90;99.90
21778;DHT22;11050;52.222;20.916;2024-03-02T11:10:51;10.90;99.90
21778;DHT22;11050;52.222;20.916;2024-03-02T11:13:27;10.90;99.90
21778;DHT22;11050;52.222;20.916;2024-03-02T11:16:05;10.90;99.90
21778;DHT22;11050;52.222;20.916;2024-03-02T11:18:36;11.00;99.90
21778;DHT22;11050;52.222;20.916;2024-03-02T11:21:03;11.00;99.90
21778;DHT22;11050;52.222;20.916;2024-03-02T11:23:33;11.00;99.90
21778;DHT22;11050;52.222;20.916;2024-03-02T11:26:19;11.00;99.90
21778;DHT22;11050;52.222;20.916;2024-03-02T11:28:46;10.90;99.90
21778;DHT22;11050;52.222;20.916;2024-03-02T11:31:12;10.90;99.90
21778;DHT22;11050;52.222;20.916;2024-03-02T11:33:38;10.90;99.90
21778;DHT22;11050;52.222;20.916;2024-03-02T11:36:06;11.00;99.90
21778;DHT22;11050;52.222;20.916;2024-03-02T11:38:34;11.00;99.90
21778;DHT22;11050;52.222;20.916;2024-03-02T11:41:02;11.00;99.90
21778;DHT22;11050;52.222;20.916;2024-03-02T11:43:31;11.00;99.90
21778;DHT22;11050;52.222;20.916;2024-03-02T11:45:59;11.00;99.90
21778;DHT22;11050;52.222;20.916;2024-03-02T11:48:26;11.00;99.90
21778;DHT22;11050;52.222;20.916;2024-03-02T11:50:52;11.00;99.90
21778;DHT22;11050;52.222;20.916;2024-03-02T11:53:20;11.00;99.90
21778;DHT22;11050;52.222;20.916;2024-03-02T11:55:46;11.10;99.90
21778;DHT22;11050;52.222;20.916;2024-03-02T11:58:13;11.10;99.90
21778;DHT22;11050;52.222;20.916;2024-03-02T12:00:46;11.20;99.90
21778;DHT22;11050;52.222;20.916;2024-03-02T12:03:13;11.30;99.90
21778;DHT22;11050;52.222;20.916;2024-03-02T12:05:40;11.40;99.90
21778;DHT22;11050;52.222;20.916;2024-03-02T12:08:08;11.50;99.90
21778;DHT22;11050;52.222;20.916;2024-03-02T12:10:35;11.60;99.90
21778;DHT22;11050;52.222;20.916;2024-03-02T12:13:03;11.70;99.90
21778;DHT22;11050;52.222;20.916;2024-03-02T12:15:37;11.80;99.90
21778;DHT22;11050;52.222;20.916;2024-03-02T12:18:04;12.00;99.90
21778;DHT22;11050;52.222;20.916;2024-03-02T12:20:32;12.10;99.90
21778;DHT22;11050;52.222;20.916;2024-03-02T12:23:00;12.20;99.90
21778;DHT22;11050;52.222;20.916;2024-03-02T12:25:28;12.40;99.90
21778;DHT22;11050;52.222;20.916;2024-03-02T12:27:58;12.50;99.90
21778;DHT22;11050;52.222;20.916;2024-03-02T12:30:27;12.60;99.90
21778;DHT22;11050;52.222;20.916;2024-03-02T12:32:55;12.60;99.90
21778;DHT22;11050;52.222;20.916;2024-03-02T12:35:21;12.70;99.90
21778;DHT22;11050;52.222;20.916;2024-03-02T12:37:52;12.70;99.90
21778;DHT22;11050;52.222;20.916;2024-03-02T12:40:20;12.70;99.90
21778;DHT22;11050;52.222;20.916;2024-03-02T12:42:48;12.70;99.90
21778;DHT22;11050;52.222;20.916;2024-03-02T12:45:15;12.70;99.90
21778;DHT22;11050;52.222;20.916;2024-03-02T12:47:42;12.70;99.90
21778;DHT22;11050;52.222;20.916;2024-03-02T12:50:09;12.70;99.90
21778;DHT22;11050;52.222;20.916;2024-03-02T12:52:35;12.70;99.90
21778;DHT22;11050;52.222;20.916;2024-03-02T12:55:05;12.70;99.90
21778;DHT22;11050;52.222;20.916;2024-03-02T12:57:32;12.60;99.90
21778;DHT22;11050;52.222;20.916;2024-03-02T13:00:03;12.60;99.90
21778;DHT22;11050;52.222;20.916;2024-03-02T13:02:36;12.60;99.90
21778;DHT22;11050;52.222;20.916;2024-03-02T13:05:02;12.60;99.90
21778;DHT22;11050;52.222;20.916;2024-03-02T13:07:29;12.50;99.90
21778;DHT22;11050;52.222;20.916;2024-03-02T13:09:55;12.40;99.90
21778;DHT22;11050;52.222;20.916;2024-03-02T13:12:22;12.40;99.90
21778;DHT22;11050;52.222;20.916;2024-03-02T13:14:53;12.40;99.90
21778;DHT22;11050;52.222;20.916;2024-03-02T13:17:22;12.40;99.90
21778;DHT22;11050;52.222;20.916;2024-03-02T13:20:00;12.30;99.90
21778;DHT22;11050;52.222;20.916;2024-03-02T13:22:26;12.30;99.90
21778;DHT22;11050;52.222;20.916;2024-03-02T13:24:53;12.30;99.90
21778;DHT22;11050;52.222;20.916;2024-03-02T13:27:20;12.30;99.90
21778;DHT22;11050;52.222;20.916;2024-03-02T13:29:49;12.30;99.90
21778;DHT22;11050;52.222;20.916;2024-03-02T13:32:15;12.30;99.90
21778;DHT22;11050;52.222;20.916;2024-03-02T13:34:42;12.30;99.90
21778;DHT22;11050;52.222;20.916;2024-03-02T13:37:09;12.30;99.90
21778;DHT22;11050;52.222;20.916;2024-03-02T13:39:35;12.30;99.90
21778;DHT22;11050;52.222;20.916;2024-03-02T13:42:07;12.30;99.90
21778;DHT22;11050;52.222;20.916;2024-03-02T13:44:34;12.30;99.90
21778;DHT22;11050;52.222;20.916;2024-03-02T13:47:03;12.20;99.90
21778;DHT22;11050;52.222;20.916;2024-03-02T13:49:30;12.20;99.90
21778;DHT22;11050;52.222;20.916;2024-03-02T13:52:08;12.10;99.90
21778;DHT22;11050;52.222;20.916;2024-03-02T13:54:42;12.00;99.90
21778;DHT22;11050;52.222;20.916;2024-03-02T13:57:10;11.90;99.90
21778;DHT22;11050;52.222;20.916;2024-03-02T13:59:37;11.80;99.90
21778;DHT22;11050;52.222;20.916;2024-03-02T14:02:05;11.80;99.90
21778;DHT22;11050;52.222;20.916;2024-03-02T14:04:32;11.70;99.90
21778;DHT22;11050;52.222;20.916;2024-03-02T14:06:59;11.70;99.90
21778;DHT22;11050;52.222;20.916;2024-03-02T14:09:25;11.60;99.90
21778;DHT22;11050;52.222;20.916;2024-03-02T14:11:51;11.50;99.90
21778;DHT22;11050;52.222;20.916;2024-03-02T14:14:17;11.40;99.90
21778;DHT22;11050;52.222;20.916;2024-03-02T14:16:43;11.30;99.90
21778;DHT22;11050;52.222;20.916;2024-03-02T14:19:10;11.20;99.90
21778;DHT22;11050;52.222;20.916;2024-03-02T14:21:37;11.20;99.90
21778;DHT22;11050;52.222;20.916;2024-03-02T14:24:04;11.10;99.90
21778;DHT22;11050;52.222;20.916;2024-03-02T14:26:30;11.00;99.90
21778;DHT22;11050;52.222;20.916;2024-03-02T14:28:55;11.00;99.90
21778;DHT22;11050;52.222;20.916;2024-03-02T14:31:21;10.90;99.90
21778;DHT22;11050;52.222;20.916;2024-03-02T14:33:47;10.90;99.90
21778;DHT22;11050;52.222;20.916;2024-03-02T14:36:13;10.80;99.90
21778;DHT22;11050;52.222;20.916;2024-03-02T14:38:39;10.80;99.90
21778;DHT22;11050;52.222;20.916;2024-03-02T14:41:05;10.70;99.90
21778;DHT22;11050;52.222;20.916;2024-03-02T14:43:30;10.60;99.90
21778;DHT22;11050;52.222;20.916;2024-03-02T14:45:56;10.50;99.90
21778;DHT22;11050;52.222;20.916;2024-03-02T14:48:23;10.50;99.90
21778;DHT22;11050;52.222;20.916;2024-03-02T14:50:49;10.50;99.90
21778;DHT22;11050;52.222;20.916;2024-03-02T14:53:16;10.40;99.90
21778;DHT22;11050;52.222;20.916;2024-03-02T14:55:42;10.30;99.90
21778;DHT22;11050;52.222;20.916;2024-03-02T14:58:08;10.30;99.90
21778;DHT22;11050;52.222;20.916;2024-03-02T15:00:33;10.30;99.90
21778;DHT22;11050;52.222;20.916;2024-03-02T15:02:59;10.20;99.90
21778;DHT22;11050;52.222;20.916;2024-03-02T15:05:25;10.20;99.90
21778;DHT22;11050;52.222;20.916;2024-03-02T15:07:52;10.10;99.90
21778;DHT22;11050;52.222;20.916;2024-03-02T15:10:18;10.00;99.90
21778;DHT22;11050;52.222;20.916;2024-03-02T15:12:44;10.00;99.90
21778;DHT22;11050;52.222;20.916;2024-03-02T15:15:10;9.90;99.90
21778;DHT22;11050;52.222;20.916;2024-03-02T15:17:36;9.90;99.90
21778;DHT22;11050;52.222;20.916;2024-03-02T15:20:03;9.80;99.90
21778;DHT22;11050;52.222;20.916;2024-03-02T15:22:32;9.80;99.90
21778;DHT22;11050;52.222;20.916;2024-03-02T15:24:58;9.70;99.90
21778;DHT22;11050;52.222;20.916;2024-03-02T15:27:25;9.70;99.90
21778;DHT22;11050;52.222;20.916;2024-03-02T15:29:53;9.60;99.90
21778;DHT22;11050;52.222;20.916;2024-03-02T15:32:20;9.60;99.90
21778;DHT22;11050;52.222;20.916;2024-03-02T15:34:46;9.50;99.90